Latest Coastal Weather Observations for Neptune Island

IDS60701

Issued at 1:21 am CST Monday 15 April 2024 (issued every 10 minutes, with the page automatically refreshed every 10 minutes)

About coastal observations | Map of coastal stations | Coastal observations for SA | Marine services | Other Formats
Station Details ID: 018115 Name: NEPTUNE ISLAND Lat: -35.34 Lon: 136.12 Height: 32.0 m
Data from the previous 72 hours. | See also: Recent months at Neptune Island
Date/Time
CST
Wind Sea
Height
m
Swell Vis
km
Cloud Weather Temp
°C
Press
MSL
hPa
Rain since
9am
mm
Dir  Spd
kts
Gust
kts
Height
m
Period
s
Dir
15/01:00am SE 5 6 - - - - - - - 14.3 1024.2 0.0
15/12:30am SE 6 7 - - - - - - - 14.1 1024.3 0.0
15/12:00am SE 6 6 - - - - - - - 14.2 1024.2 0.0
 
Date/Time
CST
Wind Sea
Height
m
Swell Vis
km
Cloud Weather Temp
°C
Press
MSL
hPa
Rain since
9am
mm
Dir  Spd
kts
Gust
kts
Height
m
Period
s
Dir
14/11:30pm SE 7 8 - - - - - - - 14.8 1024.3 0.0
14/11:00pm SE 7 8 - - - - - - - 15.0 1024.4 0.0
14/10:30pm SSE 7 8 - - - - - - - 15.3 1024.6 0.0
14/10:00pm SSE 7 8 - - - - - - - 15.3 1024.4 0.0
14/09:30pm SSE 7 9 - - - - - - - 15.3 1024.3 0.0
14/09:00pm SSE 8 10 - - - - - - - 15.4 1024.2 0.0
14/08:30pm SSE 8 11 - - - - - - - 15.5 1024.2 0.0
14/08:00pm SSE 9 11 - - - - - - - 15.7 1024.1 0.0
14/07:30pm S 9 11 - - - - - - - 15.8 1023.9 0.0
14/07:00pm S 10 12 - - - - - - - 15.8 1023.7 0.0
14/06:30pm S 11 13 - - - - - - - 15.9 1023.3 0.0
14/06:00pm S 11 13 - - - - - - - 16.0 1023.1 0.0
14/05:30pm SSE 8 11 - - - - - - - 16.6 1022.9 0.0
14/05:00pm SSE 8 10 - - - - - - - 16.7 1022.8 0.0
14/04:30pm S 7 8 - - - - - - - 17.0 1022.8 0.0
14/04:00pm SSE 6 7 - - - - - - - 17.0 1022.8 0.0
14/03:30pm SSE 6 7 - - - - - - - 17.4 1022.9 0.0
14/03:00pm SE 7 8 - - - - - - - 18.0 1023.0 0.0
14/02:30pm ESE 5 7 - - - - - - - 17.6 1022.9 0.0
14/02:00pm E 5 6 - - - - - - - 17.5 1023.1 0.0
14/01:30pm E 5 8 - - - - - - - 17.9 1023.2 0.0
14/01:00pm E 4 6 - - - - - - - 16.4 1023.5 0.0
14/12:30pm E 4 6 - - - - - - - 16.8 1023.7 0.0
14/12:00pm NE 5 6 - - - - - - - 16.5 1024.0 0.0
14/11:30am ENE 4 6 - - - - - - - 16.7 1024.1 0.0
14/11:00am ENE 5 7 - - - - - - - 16.8 1024.0 0.0
14/10:30am ENE 6 8 - - - - - - - 17.6 1023.8 0.0
14/10:00am ENE 6 8 - - - - - - - 16.8 1023.9 0.0
14/09:30am NE 6 8 - - - - - - - 16.1 1024.2 0.0
14/09:00am NE 5 6 - - - - - - - 16.5 1024.2 0.0
14/08:30am ENE 6 8 - - - - - - - 16.3 1023.7 0.0
14/08:00am ENE 7 9 - - - - - - - 16.0 1023.6 0.0
14/07:30am NE 7 8 - - - - - - - 14.7 1023.3 0.0
14/07:00am ENE 7 8 - - - - - - - 14.0 1023.1 0.0
14/06:30am ENE 7 8 - - - - - - - 14.1 1022.9 0.0
14/06:00am ENE 7 8 - - - - - - - 14.2 1023.0 0.0
14/05:30am ENE 8 10 - - - - - - - 14.2 1022.7 0.0
14/05:00am ENE 8 9 - - - - - - - 13.9 1022.6 0.0
14/04:30am ENE 8 9 - - - - - - - 13.4 1022.6 0.0
14/04:00am ENE 6 8 - - - - - - - 13.9 1022.8 0.0
14/03:30am E 7 8 - - - - - - - 13.6 1022.8 0.0
14/03:00am E 8 9 - - - - - - - 13.4 1022.7 0.0
14/02:30am E 7 9 - - - - - - - 13.3 1022.8 0.0
14/02:00am ESE 9 11 - - - - - - - 13.6 1022.9 0.0
14/01:30am ESE 9 11 - - - - - - - 13.6 1023.1 0.0
14/01:00am ESE 8 10 - - - - - - - 13.7 1023.3 0.0
14/12:30am E 8 9 - - - - - - - 13.7 1023.4 0.0
14/12:00am ESE 8 11 - - - - - - - 14.2 1023.4 0.0
 
Date/Time
CST
Wind Sea
Height
m
Swell Vis
km
Cloud Weather Temp
°C
Press
MSL
hPa
Rain since
9am
mm
Dir  Spd
kts
Gust
kts
Height
m
Period
s
Dir
13/11:30pm SE 7 9 - - - - - - - 14.1 1023.5 0.0
13/11:00pm SE 8 11 - - - - - - - 14.4 1023.7 0.0
13/10:30pm SE 7 9 - - - - - - - 14.3 1023.9 0.0
13/10:00pm SSE 8 9 - - - - - - - 14.7 1024.1 0.0
13/09:30pm S 7 9 - - - - - - - 14.7 1024.5 0.0
13/09:00pm S 7 9 - - - - - - - 14.6 1024.4 0.0
13/08:30pm S 6 7 - - - - - - - 14.8 1024.3 0.0
13/08:00pm S 6 8 - - - - - - - 14.9 1024.0 0.0
13/07:30pm S 6 7 - - - - - - - 15.1 1024.2 0.0
13/07:00pm SSE 6 8 - - - - - - - 15.1 1024.2 0.0
13/06:30pm SE 6 8 - - - - - - - 15.6 1024.0 0.0
13/06:00pm S 6 8 - - - - - - - 15.7 1023.7 0.0
13/05:30pm S 8 11 - - - - - - - 16.0 1023.3 0.0
13/05:00pm NNE 5 6 - - - - - - - 16.5 1023.1 0.0
13/04:30pm NNE 4 4 - - - - - - - 16.8 1023.1 0.0
13/04:00pm NNE 4 5 - - - - - - - 16.6 1023.1 0.0
13/03:30pm NNW 4 5 - - - - - - - 17.0 1023.1 0.0
13/03:00pm NNW 4 5 - - - - - - - 17.4 1023.3 0.0
13/02:30pm NNW 3 5 - - - - - - - 17.1 1023.5 0.0
13/02:00pm NNE 4 5 - - - - - - - 17.3 1023.8 0.0
13/01:30pm NNE 5 6 - - - - - - - 16.3 1024.1 0.0
13/01:00pm N 5 6 - - - - - - - 16.3 1024.6 0.0
13/12:30pm N 6 7 - - - - - - - 16.1 1025.0 0.0
13/12:00pm N 7 9 - - - - - - - 15.9 1025.4 0.0
13/11:30am N 9 11 - - - - - - - 16.0 1025.7 0.0
13/11:00am ESE 7 8 - - - - - - - 16.0 1025.6 0.0
13/10:30am ESE 7 8 - - - - - - - 15.6 1025.6 0.0
13/10:00am ESE 6 8 - - - - - - - 16.1 1025.8 0.0
13/09:30am ESE 1 5 - - - - - - - 15.8 1025.8 0.0
13/09:00am ESE 2 4 - - - - - - - 15.4 1025.7 0.0
13/08:30am ESE 1 3 - - - - - - - 15.1 1025.6 0.0
13/08:00am ESE 3 4 - - - - - - - 14.9 1025.2 0.0
13/07:30am ESE 4 5 - - - - - - - 14.5 1024.7 0.0
13/07:00am ESE 6 8 - - - - - - - 14.4 1024.7 0.0
13/06:30am ESE 9 11 - - - - - - - 14.5 1024.5 0.0
13/06:00am SE 6 8 - - - - - - - 15.1 1024.4 0.0
13/05:30am SE 6 7 - - - - - - - 14.7 1024.3 0.0
13/05:00am SE 7 8 - - - - - - - 14.9 1024.1 0.0
13/04:30am SE 8 9 - - - - - - - 14.9 1023.8 0.0
13/04:00am SSE 9 11 - - - - - - - 14.8 1023.8 0.0
13/03:30am SSE 7 11 - - - - - - - 15.2 1023.8 0.0
13/03:00am SSE 4 4 - - - - - - - 14.8 1023.9 0.0
13/02:30am SSE 6 8 - - - - - - - 14.9 1024.0 0.0
13/02:00am SSE 11 13 - - - - - - - 15.2 1024.2 0.0
13/01:30am SE 7 8 - - - - - - - 15.5 1024.2 0.0
13/01:00am SE 7 9 - - - - - - - 15.5 1024.2 0.0
13/12:30am SSE 7 9 - - - - - - - 15.8 1024.3 0.0
13/12:00am SSW 7 9 - - - - - - - 15.8 1024.4 0.0
 
Date/Time
CST
Wind Sea
Height
m
Swell Vis
km
Cloud Weather Temp
°C
Press
MSL
hPa
Rain since
9am
mm
Dir  Spd
kts
Gust
kts
Height
m
Period
s
Dir
12/11:30pm SW 7 9 - - - - - - - 15.8 1024.5 0.0
12/11:00pm SSW 6 11 - - - - - - - 15.7 1024.6 0.0
12/10:30pm SSW 5 7 - - - - - - - 15.6 1024.7 0.0
12/10:00pm S 8 12 - - - - - - - 15.7 1024.7 0.0
12/09:30pm SSE 7 9 - - - - - - - 15.5 1024.8 0.0
12/09:00pm SSW 7 13 - - - - - - - 15.6 1024.7 0.0
12/08:30pm SSW 6 9 - - - - - - - 15.6 1024.7 0.0
12/08:00pm S 11 14 - - - - - - - 15.6 1024.6 0.0
12/07:30pm S 9 12 - - - - - - - 15.8 1024.5 0.0
12/07:00pm SSW 10 15 - - - - - - - 15.9 1024.2 0.0
12/06:30pm S 11 15 - - - - - - - 15.8 1023.9 0.0
12/06:00pm SW 10 14 - - - - - - - 16.1 1023.6 0.0
12/05:30pm SSW 10 14 - - - - - - - 16.1 1023.5 0.0
12/05:00pm SW 6 7 - - - - - - - 16.2 1023.5 0.0
12/04:30pm SW 8 9 - - - - - - - 16.5 1023.5 0.0
12/04:00pm SSW 9 12 - - - - - - - 16.7 1023.5 0.0
12/03:30pm SW 6 7 - - - - - - - 16.4 1023.5 0.0
12/03:00pm SW 5 6 - - - - - - - 16.5 1023.6 0.0
12/02:30pm SSW 5 7 - - - - - - - 16.9 1023.7 0.0
12/02:00pm SW 9 11 - - - - - - - 16.9 1023.7 0.0
12/01:30pm SW 6 7 - - - - - - - 17.0 1024.0 0.0
12/01:00pm WSW 9 11 - - - - - - - 17.5 1024.3 0.0
12/12:30pm SSW 9 12 - - - - - - - 17.6 1024.9 0.0
12/12:00pm SSW 9 11 - - - - - - - 17.4 1025.3 0.0
12/11:30am SSW 8 10 - - - - - - - 17.1 1025.5 0.0
12/11:00am SSW 6 8 - - - - - - - 17.3 1025.6 0.0
12/10:30am SSW 9 11 - - - - - - - 16.5 1025.6 0.0
12/10:00am S 11 14 - - - - - - - 16.2 1025.5 0.0
12/09:30am S 9 12 - - - - - - - 16.1 1025.6 0.0
12/09:00am S 5 6 - - - - - - - 16.0 1025.6 0.0
12/08:30am SSE 1 4 - - - - - - - 15.7 1025.6 0.0
12/08:00am SSE 4 5 - - - - - - - 15.4 1025.7 0.0
12/07:30am S 5 6 - - - - - - - 15.2 1025.4 0.0
12/07:00am SSE 5 8 - - - - - - - 15.0 1024.9 0.0
12/06:30am SSW 4 5 - - - - - - - 14.9 1025.0 0.0
12/06:00am S 9 14 - - - - - - - 15.0 1024.8 0.0
12/05:30am S 7 9 - - - - - - - 14.9 1024.4 0.0
12/05:00am S 4 7 - - - - - - - 14.8 1024.5 0.0
12/04:30am SE 4 6 - - - - - - - 14.5 1024.1 0.0
12/04:00am SSE 9 12 - - - - - - - 14.8 1023.7 0.0
12/03:30am SE 6 8 - - - - - - - 14.8 1023.7 0.0
12/03:00am S 6 8 - - - - - - - 15.0 1024.1 0.0
12/02:30am SE 4 7 - - - - - - - 15.0 1024.1 0.0
12/02:00am S 8 13 - - - - - - - 15.0 1024.3 0.0
12/01:30am S 9 11 - - - - - - - 15.1 1024.7 0.0

Other formats

Comma delimited format used in spreadsheet applications
http://www.bom.gov.au/fwo/IDS60701/IDS60701.94804.axf

JavaScript Object Notation format (JSON) in row-major order
http://www.bom.gov.au/fwo/IDS60701/IDS60701.94804.json

Data quality

Most of these data are generated automatically and are frequently updated. Quality checks on data are not normally performed. It is possible for incorrect values to appear. Refer to information at About Latest Weather Observations and please check the disclaimer before using these data.